createdAt,value
2023-05-06T00:00:53.109Z,12.82
2023-05-06T00:03:21.924Z,12.82
2023-05-06T00:05:50.509Z,12.83
2023-05-06T00:08:19.075Z,12.82
2023-05-06T00:10:51.471Z,12.82
2023-05-06T00:13:20.043Z,12.82
2023-05-06T00:15:50.027Z,12.81
2023-05-06T00:18:18.531Z,12.81
2023-05-06T00:20:47.086Z,12.79
2023-05-06T00:23:15.628Z,12.79
2023-05-06T00:25:44.153Z,12.76
2023-05-06T00:28:12.673Z,12.73
2023-05-06T00:30:41.419Z,12.72
2023-05-06T00:33:11.360Z,12.72
2023-05-06T00:35:42.012Z,12.71
2023-05-06T00:38:12.882Z,12.71
2023-05-06T00:40:41.341Z,12.72
2023-05-06T00:43:10.044Z,12.72
2023-05-06T00:45:39.368Z,12.71
2023-05-06T00:48:08.551Z,12.70
2023-05-06T00:50:40.743Z,12.70
2023-05-06T00:53:10.806Z,12.70
2023-05-06T00:55:40.884Z,12.69
2023-05-06T00:58:10.072Z,12.68
2023-05-06T01:00:39.081Z,12.67
2023-05-06T01:03:09.466Z,12.66
2023-05-06T01:05:56.314Z,12.64
2023-05-06T01:08:33.532Z,12.62
2023-05-06T01:11:08.502Z,12.60
2023-05-06T01:13:46.369Z,12.60
2023-05-06T01:16:16.998Z,12.59
2023-05-06T01:18:46.574Z,12.58
2023-05-06T01:21:19.887Z,12.57
2023-05-06T01:23:53.807Z,12.54
2023-05-06T01:26:22.623Z,12.52
2023-05-06T01:28:51.309Z,12.51
2023-05-06T01:31:26.713Z,12.48
2023-05-06T01:34:03.879Z,12.46
2023-05-06T01:36:40.010Z,12.42
2023-05-06T01:39:17.937Z,12.40
2023-05-06T01:41:49.852Z,12.38
2023-05-06T01:44:22.360Z,12.36
2023-05-06T01:46:54.911Z,12.34
2023-05-06T01:49:26.383Z,12.32
2023-05-06T01:51:55.189Z,12.28
2023-05-06T01:54:26.417Z,12.27
2023-05-06T01:56:54.990Z,12.25
2023-05-06T01:59:23.528Z,12.21
2023-05-06T02:01:53.537Z,12.21
2023-05-06T02:04:22.268Z,12.18
2023-05-06T02:06:52.249Z,12.16
2023-05-06T02:09:21.414Z,12.13
2023-05-06T02:11:59.659Z,12.09
2023-05-06T02:14:28.169Z,12.07
2023-05-06T02:16:57.569Z,12.02
2023-05-06T02:19:26.333Z,12.00
2023-05-06T02:21:55.013Z,11.95
2023-05-06T02:24:23.576Z,11.93
2023-05-06T02:26:52.697Z,11.90
2023-05-06T02:29:22.529Z,11.87
2023-05-06T02:31:51.123Z,11.85
2023-05-06T02:34:19.634Z,11.81
2023-05-06T02:36:48.160Z,11.76
2023-05-06T02:39:17.197Z,11.75
2023-05-06T02:41:45.760Z,11.70
2023-05-06T02:44:14.255Z,11.66
2023-05-06T02:46:44.279Z,11.62
2023-05-06T02:49:13.756Z,11.61
2023-05-06T02:51:42.380Z,11.56
2023-05-06T02:54:10.965Z,11.54
2023-05-06T02:56:39.605Z,11.50
2023-05-06T02:59:08.235Z,11.48
2023-05-06T03:01:36.884Z,11.46
2023-05-06T03:04:07.184Z,11.43
2023-05-06T03:06:35.914Z,11.41
2023-05-06T03:09:05.059Z,11.38
2023-05-06T03:11:34.277Z,11.36
2023-05-06T03:14:05.829Z,11.34
2023-05-06T03:16:34.447Z,11.31
2023-05-06T03:19:04.078Z,11.29
2023-05-06T03:21:34.966Z,11.26
2023-05-06T03:24:04.683Z,11.25
2023-05-06T03:26:33.235Z,11.22
2023-05-06T03:29:01.842Z,11.20
2023-05-06T03:31:31.301Z,11.19
2023-05-06T03:34:01.373Z,11.17
2023-05-06T03:36:31.727Z,11.15
2023-05-06T03:39:01.789Z,11.13
2023-05-06T03:41:32.564Z,11.10
2023-05-06T03:44:01.733Z,11.06
2023-05-06T03:46:30.357Z,11.02
2023-05-06T03:49:00.652Z,11.00
2023-05-06T03:51:29.828Z,10.97
2023-05-06T03:53:58.586Z,10.95
2023-05-06T03:56:28.558Z,10.91
2023-05-06T03:58:58.313Z,10.89
2023-05-06T04:01:28.422Z,10.85
2023-05-06T04:03:57.071Z,10.83
2023-05-06T04:06:27.209Z,10.80
2023-05-06T04:08:55.791Z,10.80
2023-05-06T04:11:25.136Z,10.78
2023-05-06T04:13:55.219Z,10.77
2023-05-06T04:16:25.113Z,10.76
2023-05-06T04:18:57.579Z,10.75
2023-05-06T04:21:26.287Z,10.75
2023-05-06T04:24:01.262Z,10.74
2023-05-06T04:26:35.668Z,10.73
2023-05-06T04:29:05.660Z,10.72
2023-05-06T04:31:37.277Z,10.72
2023-05-06T04:34:10.869Z,10.73
2023-05-06T04:36:40.806Z,10.72
2023-05-06T04:39:26.673Z,10.74
2023-05-06T04:41:55.206Z,10.74
2023-05-06T04:44:33.954Z,10.75
2023-05-06T04:47:03.596Z,10.76
2023-05-06T04:49:33.177Z,10.77
2023-05-06T04:52:03.487Z,10.77
2023-05-06T04:54:32.826Z,10.77
2023-05-06T04:57:02.195Z,10.78
2023-05-06T04:59:32.840Z,10.82
2023-05-06T05:02:03.624Z,10.83
2023-05-06T05:04:33.830Z,10.84
2023-05-06T05:07:02.603Z,10.86
2023-05-06T05:09:33.641Z,10.89
2023-05-06T05:12:05.499Z,10.90
2023-05-06T05:14:38.889Z,10.92
2023-05-06T05:17:08.090Z,10.94
2023-05-06T05:19:36.905Z,10.95
2023-05-06T05:22:08.599Z,10.98
2023-05-06T05:24:37.194Z,10.99
2023-05-06T05:27:05.717Z,11.02
2023-05-06T05:29:34.449Z,11.05
2023-05-06T05:32:07.493Z,11.08
2023-05-06T05:34:38.637Z,11.11
2023-05-06T05:37:07.705Z,11.13
2023-05-06T05:39:36.354Z,11.18
2023-05-06T05:42:05.305Z,11.21
2023-05-06T05:44:36.460Z,11.25
2023-05-06T05:47:08.206Z,11.30
2023-05-06T05:49:37.514Z,11.33
2023-05-06T05:52:07.203Z,11.36
2023-05-06T05:54:38.381Z,11.42
2023-05-06T05:57:08.107Z,11.47
2023-05-06T05:59:37.692Z,11.52
2023-05-06T06:02:10.725Z,11.58
2023-05-06T06:04:39.212Z,11.63
2023-05-06T06:07:07.817Z,11.70
2023-05-06T06:09:40.151Z,11.77
2023-05-06T06:12:08.767Z,11.82
2023-05-06T06:14:41.240Z,11.90
2023-05-06T06:17:11.325Z,11.96
2023-05-06T06:19:39.813Z,12.01
2023-05-06T06:22:08.413Z,12.06
2023-05-06T06:24:37.524Z,12.13
2023-05-06T06:27:05.999Z,12.18
2023-05-06T06:29:34.457Z,12.23
2023-05-06T06:32:04.276Z,12.28
2023-05-06T06:34:34.263Z,12.33
2023-05-06T06:37:02.770Z,12.38
2023-05-06T06:39:31.380Z,12.42
2023-05-06T06:41:59.834Z,12.48
2023-05-06T06:44:35.564Z,12.53
2023-05-06T06:47:04.067Z,12.58
2023-05-06T06:49:33.916Z,12.63
2023-05-06T06:52:02.477Z,12.67
2023-05-06T06:54:30.957Z,12.72
2023-05-06T06:56:59.429Z,12.80
2023-05-06T06:59:27.964Z,12.85
2023-05-06T07:01:56.485Z,12.91
2023-05-06T07:04:25.842Z,12.97
2023-05-06T07:06:56.578Z,13.02
2023-05-06T07:09:25.075Z,13.07
2023-05-06T07:11:53.563Z,13.13
2023-05-06T07:14:22.060Z,13.19
2023-05-06T07:16:51.606Z,13.26
2023-05-06T07:19:21.357Z,13.31
2023-05-06T07:21:49.850Z,13.37
2023-05-06T07:24:19.765Z,13.43
2023-05-06T07:26:48.341Z,13.48
2023-05-06T07:29:16.947Z,13.53
2023-05-06T07:31:45.524Z,13.59
2023-05-06T07:34:14.037Z,13.65
2023-05-06T07:36:43.510Z,13.70
2023-05-06T07:39:13.393Z,13.76
2023-05-06T07:41:43.216Z,13.82
2023-05-06T07:44:11.832Z,13.88
2023-05-06T07:46:40.516Z,13.93
2023-05-06T07:49:09.130Z,14.00
2023-05-06T07:51:37.702Z,14.08
2023-05-06T07:54:06.311Z,14.16
2023-05-06T07:56:37.065Z,14.25
2023-05-06T07:59:07.202Z,14.32
2023-05-06T08:01:36.024Z,14.39
2023-05-06T08:04:04.587Z,14.44
2023-05-06T08:06:33.294Z,14.52
2023-05-06T08:09:01.696Z,14.59
2023-05-06T08:11:30.272Z,14.65
2023-05-06T08:13:58.674Z,14.71
2023-05-06T08:16:28.549Z,14.78
2023-05-06T08:18:57.209Z,14.86
2023-05-06T08:21:25.708Z,14.91
2023-05-06T08:23:55.313Z,14.97
2023-05-06T08:26:26.990Z,15.03
2023-05-06T08:28:57.951Z,15.09
2023-05-06T08:31:28.896Z,15.16
2023-05-06T08:33:57.763Z,15.22
2023-05-06T08:36:27.915Z,15.28
2023-05-06T08:38:57.090Z,15.36
2023-05-06T08:41:30.176Z,15.41
2023-05-06T08:44:02.229Z,15.44
2023-05-06T08:46:33.187Z,15.50
2023-05-06T08:49:02.635Z,15.56
2023-05-06T08:51:32.186Z,15.63
2023-05-06T08:54:03.606Z,15.71
2023-05-06T08:56:35.459Z,15.78
2023-05-06T08:59:09.217Z,15.87
2023-05-06T09:01:41.338Z,15.93
2023-05-06T09:04:31.044Z,16.01
2023-05-06T09:07:00.663Z,16.07
2023-05-06T09:09:29.823Z,16.14
2023-05-06T09:11:58.339Z,16.22
2023-05-06T09:14:27.247Z,16.27
2023-05-06T09:16:57.656Z,16.32
2023-05-06T09:19:26.715Z,16.37
2023-05-06T09:21:55.344Z,16.44
2023-05-06T09:24:25.005Z,16.48
2023-05-06T09:26:55.182Z,16.54
2023-05-06T09:29:23.840Z,16.58
2023-05-06T09:31:55.094Z,16.65
2023-05-06T09:34:24.915Z,16.70
2023-05-06T09:36:57.117Z,16.74
2023-05-06T09:39:26.955Z,16.80
2023-05-06T09:41:55.877Z,16.86
2023-05-06T09:44:26.100Z,16.92
2023-05-06T09:46:54.586Z,17.00
2023-05-06T09:49:24.646Z,17.07
2023-05-06T09:51:53.899Z,17.13
2023-05-06T09:54:23.230Z,17.19
2023-05-06T09:56:53.384Z,17.27
2023-05-06T09:59:22.822Z,17.35
2023-05-06T10:01:51.988Z,17.42
2023-05-06T10:04:25.460Z,17.53
2023-05-06T10:06:56.634Z,17.62
2023-05-06T10:09:25.951Z,17.67
2023-05-06T10:11:55.314Z,17.71
2023-05-06T10:14:24.034Z,17.74
2023-05-06T10:16:53.834Z,17.80
2023-05-06T10:19:25.804Z,17.87
2023-05-06T10:22:04.502Z,17.96
2023-05-06T10:24:42.766Z,18.03
2023-05-06T10:27:13.339Z,18.08
2023-05-06T10:29:44.263Z,18.09
2023-05-06T10:32:13.827Z,18.07
2023-05-06T10:34:52.716Z,18.08
2023-05-06T10:37:25.915Z,18.12
2023-05-06T10:39:56.500Z,18.19
2023-05-06T10:42:27.926Z,18.26
2023-05-06T10:45:04.341Z,18.37
2023-05-06T10:48:08.696Z,18.46
2023-05-06T10:50:37.678Z,18.50
2023-05-06T10:53:07.746Z,18.52
2023-05-06T10:55:38.236Z,18.60
2023-05-06T10:58:15.066Z,18.63
2023-05-06T11:00:53.830Z,18.71
2023-05-06T11:03:25.306Z,18.80
2023-05-06T11:05:54.013Z,18.87
2023-05-06T11:08:26.055Z,18.91
2023-05-06T11:10:55.645Z,19.04
2023-05-06T11:13:30.019Z,19.20
2023-05-06T11:16:02.528Z,19.38
2023-05-06T11:18:45.121Z,19.53
2023-05-06T11:21:41.750Z,19.65
2023-05-06T11:24:13.538Z,19.70
2023-05-06T11:26:43.969Z,19.75
2023-05-06T11:29:12.606Z,19.85
2023-05-06T11:31:43.433Z,19.86
2023-05-06T11:34:14.645Z,19.87
2023-05-06T11:36:48.091Z,19.92
2023-05-06T11:39:18.118Z,20.00
2023-05-06T11:41:46.665Z,20.08
2023-05-06T11:44:25.723Z,20.11
2023-05-06T11:46:58.203Z,20.15
2023-05-06T11:49:27.977Z,20.20
2023-05-06T11:51:58.149Z,20.29
2023-05-06T11:54:28.164Z,20.39
2023-05-06T11:56:57.491Z,20.48
2023-05-06T11:59:32.716Z,20.53
2023-05-06T12:02:03.425Z,20.53
2023-05-06T12:04:39.688Z,20.51
2023-05-06T12:07:09.005Z,20.54
2023-05-06T12:09:40.632Z,20.56
2023-05-06T12:12:10.824Z,20.54
2023-05-06T12:14:40.545Z,20.59
2023-05-06T12:17:09.339Z,20.63
2023-05-06T12:19:39.528Z,20.71
2023-05-06T12:22:21.972Z,20.75
2023-05-06T12:24:51.801Z,20.84
2023-05-06T12:27:31.265Z,20.99
2023-05-06T12:30:00.564Z,21.13
2023-05-06T12:32:29.082Z,21.23
2023-05-06T12:34:58.404Z,21.37
2023-05-06T12:37:29.124Z,21.50
2023-05-06T12:39:59.662Z,21.57
2023-05-06T12:42:28.890Z,21.58
2023-05-06T12:44:57.373Z,21.63
2023-05-06T12:47:27.092Z,21.78
2023-05-06T12:49:58.125Z,21.83
2023-05-06T12:52:29.804Z,21.87
2023-05-06T12:55:02.995Z,21.92
2023-05-06T12:57:31.484Z,21.94
2023-05-06T12:59:59.939Z,22.00
2023-05-06T13:02:28.562Z,22.09
2023-05-06T13:04:57.066Z,22.17
2023-05-06T13:07:25.509Z,22.22
2023-05-06T13:09:54.044Z,22.30
2023-05-06T13:12:23.955Z,22.42
2023-05-06T13:14:52.413Z,22.55
2023-05-06T13:17:21.011Z,22.71
2023-05-06T13:19:49.539Z,22.87
2023-05-06T13:22:18.062Z,23.05
2023-05-06T13:24:46.676Z,23.14
2023-05-06T13:27:15.211Z,23.27
2023-05-06T13:29:45.063Z,23.39
2023-05-06T13:32:13.682Z,23.45
2023-05-06T13:34:42.316Z,23.56
2023-05-06T13:37:10.817Z,23.65
2023-05-06T13:39:39.263Z,23.64
2023-05-06T13:42:08.579Z,23.61
2023-05-06T13:44:37.438Z,23.63
2023-05-06T13:47:07.507Z,23.65
2023-05-06T13:49:36.034Z,23.72
2023-05-06T13:52:05.798Z,23.81
2023-05-06T13:54:36.405Z,23.95
2023-05-06T13:57:05.005Z,24.06
2023-05-06T13:59:33.458Z,24.19
2023-05-06T14:02:02.710Z,24.14
2023-05-06T14:04:35.084Z,24.02
2023-05-06T14:07:03.480Z,23.88
2023-05-06T14:09:32.069Z,23.83
2023-05-06T14:12:00.490Z,23.74
2023-05-06T14:14:28.948Z,23.67
2023-05-06T14:16:57.449Z,23.60
2023-05-06T14:19:25.985Z,23.46
2023-05-06T14:21:55.787Z,23.34
2023-05-06T14:24:24.257Z,23.22
2023-05-06T14:26:53.799Z,23.15
2023-05-06T14:29:22.350Z,23.04
2023-05-06T14:31:51.004Z,22.90
2023-05-06T14:34:19.546Z,22.75
2023-05-06T14:36:48.008Z,22.62
2023-05-06T14:39:17.829Z,22.51
2023-05-06T14:41:46.624Z,22.40
2023-05-06T14:44:15.262Z,22.32
2023-05-06T14:46:43.725Z,22.21
2023-05-06T14:49:12.188Z,22.12
2023-05-06T14:51:40.642Z,22.03
2023-05-06T14:54:09.069Z,21.92
2023-05-06T14:56:38.975Z,21.81
2023-05-06T14:59:07.590Z,21.69
2023-05-06T15:01:36.129Z,21.57
2023-05-06T15:04:04.921Z,21.50
2023-05-06T15:06:33.450Z,21.45
2023-05-06T15:09:04.762Z,21.39
2023-05-06T15:11:33.449Z,21.35
2023-05-06T15:14:11.855Z,21.28
2023-05-06T15:16:41.111Z,21.22
2023-05-06T15:19:09.593Z,21.15
2023-05-06T15:21:40.602Z,21.02
2023-05-06T15:24:09.732Z,20.88
2023-05-06T15:26:38.222Z,20.70
2023-05-06T15:29:08.197Z,20.50
2023-05-06T15:31:39.190Z,20.29
2023-05-06T15:34:07.946Z,20.12
2023-05-06T15:36:36.541Z,19.98
2023-05-06T15:39:05.611Z,19.85
2023-05-06T15:41:35.382Z,19.74
2023-05-06T15:44:06.149Z,19.61
2023-05-06T15:46:36.474Z,19.48
2023-05-06T15:51:36.626Z,19.28
2023-05-06T15:54:05.978Z,19.20
2023-05-06T15:56:40.731Z,19.14
2023-05-06T15:59:12.139Z,19.06
2023-05-06T16:02:24.830Z,18.97
2023-05-06T16:04:31.311Z,18.91
2023-05-06T16:06:59.997Z,18.86
2023-05-06T16:09:28.612Z,18.79
2023-05-06T16:11:57.261Z,18.74
2023-05-06T16:14:25.708Z,18.64
2023-05-06T16:16:58.537Z,18.60
2023-05-06T16:19:27.184Z,18.53
2023-05-06T16:21:56.723Z,18.48
2023-05-06T16:24:25.454Z,18.46
2023-05-06T16:26:56.071Z,18.45
2023-05-06T16:29:24.824Z,18.43
2023-05-06T16:31:53.322Z,18.41
2023-05-06T16:34:23.358Z,18.37
2023-05-06T16:36:52.387Z,18.35
2023-05-06T16:39:20.964Z,18.31
2023-05-06T16:41:49.454Z,18.29
2023-05-06T16:44:18.022Z,18.27
2023-05-06T16:46:46.568Z,18.25
2023-05-06T16:49:15.323Z,18.23
2023-05-06T16:51:45.291Z,18.22
2023-05-06T16:54:13.789Z,18.20
2023-05-06T16:56:51.396Z,18.19
2023-05-06T16:59:22.465Z,18.18
2023-05-06T17:01:51.538Z,18.15
2023-05-06T17:04:20.239Z,18.13
2023-05-06T17:06:50.844Z,18.11
2023-05-06T17:09:19.914Z,18.09
2023-05-06T17:11:48.438Z,18.06
2023-05-06T17:14:16.896Z,18.04
2023-05-06T17:16:45.463Z,18.01
2023-05-06T17:19:14.096Z,17.98
2023-05-06T17:21:43.598Z,17.96
2023-05-06T17:24:13.485Z,17.94
2023-05-06T17:26:42.007Z,17.95
2023-05-06T17:29:10.443Z,17.95
2023-05-06T17:31:38.911Z,17.93
2023-05-06T17:34:07.490Z,17.92
2023-05-06T17:36:35.973Z,17.89
2023-05-06T17:39:05.668Z,17.86
2023-05-06T17:41:35.496Z,17.86
2023-05-06T17:44:03.952Z,17.84
2023-05-06T17:46:33.344Z,17.82
2023-05-06T17:49:01.946Z,17.79
2023-05-06T17:51:30.431Z,17.77
2023-05-06T17:54:01.572Z,17.76
2023-05-06T17:56:30.029Z,17.74
2023-05-06T17:59:02.606Z,17.72
2023-05-06T18:01:31.265Z,17.68
2023-05-06T18:03:59.960Z,17.66
2023-05-06T18:06:28.809Z,17.65
2023-05-06T18:08:57.269Z,17.64
2023-05-06T18:11:25.878Z,17.63
2023-05-06T18:13:54.425Z,17.62
2023-05-06T18:16:24.323Z,17.60
2023-05-06T18:18:52.838Z,17.57
2023-05-06T18:21:21.479Z,17.53
2023-05-06T18:23:51.667Z,17.50
2023-05-06T18:26:39.759Z,17.47
2023-05-06T18:29:12.296Z,17.45
2023-05-06T18:31:42.331Z,17.43
2023-05-06T18:34:10.950Z,17.41
2023-05-06T18:36:39.413Z,17.39
2023-05-06T18:39:08.057Z,17.38
2023-05-06T18:41:36.556Z,17.35
2023-05-06T18:44:05.812Z,17.35
2023-05-06T18:46:34.695Z,17.34
2023-05-06T18:49:04.693Z,17.32
2023-05-06T18:51:33.190Z,17.32
2023-05-06T18:54:01.664Z,17.30
2023-05-06T18:56:30.283Z,17.28
2023-05-06T18:58:58.788Z,17.25
2023-05-06T19:01:27.424Z,17.24
2023-05-06T19:09:43.157Z,17.14
2023-05-06T19:12:13.355Z,17.09
2023-05-06T19:14:42.086Z,17.06
2023-05-06T19:17:11.352Z,17.01
2023-05-06T19:19:40.683Z,16.98
2023-05-06T19:22:09.223Z,16.95
2023-05-06T19:24:37.746Z,16.93
2023-05-06T19:27:06.245Z,16.90
2023-05-06T19:29:36.245Z,16.89
2023-05-06T19:32:04.796Z,16.88
2023-05-06T19:34:33.285Z,16.85
2023-05-06T19:37:01.900Z,16.82
2023-05-06T19:39:30.393Z,16.81
2023-05-06T19:41:58.805Z,16.79
2023-05-06T19:44:27.292Z,16.78
2023-05-06T19:46:57.177Z,16.77
2023-05-06T19:49:25.756Z,16.74
2023-05-06T19:51:54.386Z,16.74
2023-05-06T19:54:22.853Z,16.71
2023-05-06T19:56:53.640Z,16.70
2023-05-06T19:59:22.108Z,16.69
2023-05-06T20:01:50.756Z,16.67
2023-05-06T20:04:20.520Z,16.66
2023-05-06T20:06:48.939Z,16.65
2023-05-06T20:09:17.312Z,16.62
2023-05-06T20:11:47.124Z,16.60
2023-05-06T20:14:15.501Z,16.58
2023-05-06T20:16:46.472Z,16.57
2023-05-06T20:19:14.960Z,16.58
2023-05-06T20:21:44.835Z,16.57
2023-05-06T20:24:13.922Z,16.54
2023-05-06T20:26:42.344Z,16.54
2023-05-06T20:29:10.789Z,16.53
2023-05-06T20:31:39.471Z,16.50
2023-05-06T20:34:07.893Z,16.50
2023-05-06T20:36:36.411Z,16.49
2023-05-06T20:39:06.335Z,16.47
2023-05-06T20:41:34.788Z,16.45
2023-05-06T20:44:03.343Z,16.44
2023-05-06T20:46:32.975Z,16.42
2023-05-06T20:49:01.594Z,16.42
2023-05-06T20:51:30.143Z,16.40
2023-05-06T20:54:00.851Z,16.38
2023-05-06T20:56:31.310Z,16.38
2023-05-06T20:58:59.798Z,16.36
2023-05-06T21:01:28.430Z,16.37
2023-05-06T21:03:58.826Z,16.36
2023-05-06T21:06:28.133Z,16.34
2023-05-06T21:08:57.998Z,16.35
2023-05-06T21:11:28.927Z,16.33
2023-05-06T21:13:59.006Z,16.33
2023-05-06T21:16:28.060Z,16.32
2023-05-06T21:18:56.815Z,16.32
2023-05-06T21:21:25.603Z,16.31
2023-05-06T21:23:54.091Z,16.30
2023-05-06T21:26:22.630Z,16.28
2023-05-06T21:28:52.095Z,16.27
2023-05-06T21:31:23.372Z,16.27
2023-05-06T21:33:56.186Z,16.25
2023-05-06T21:36:25.060Z,16.24
2023-05-06T21:39:01.674Z,16.22
2023-05-06T21:41:30.125Z,16.20
2023-05-06T21:43:58.598Z,16.18
2023-05-06T21:46:28.490Z,16.17
2023-05-06T21:48:57.229Z,16.15
2023-05-06T21:51:27.768Z,16.14
2023-05-06T21:53:56.413Z,16.13
2023-05-06T21:56:25.531Z,16.13
2023-05-06T21:58:54.682Z,16.12
2023-05-06T22:01:23.469Z,16.10
2023-05-06T22:03:53.757Z,16.10
2023-05-06T22:06:22.965Z,16.07
2023-05-06T22:08:52.096Z,16.07
2023-05-06T22:11:22.690Z,16.06
2023-05-06T22:13:51.187Z,16.03
2023-05-06T22:16:19.755Z,16.02
2023-05-06T22:18:48.383Z,16.01
2023-05-06T22:21:18.527Z,15.99
2023-05-06T22:23:47.212Z,15.97
2023-05-06T22:26:15.800Z,15.94
2023-05-06T22:28:44.356Z,15.92
2023-05-06T22:31:14.028Z,15.90
2023-05-06T22:33:42.651Z,15.88
2023-05-06T22:36:11.269Z,15.87
2023-05-06T22:38:41.273Z,15.86
2023-05-06T22:41:09.776Z,15.85
2023-05-06T22:43:38.376Z,15.84
2023-05-06T22:46:06.924Z,15.83
2023-05-06T22:48:35.488Z,15.82
2023-05-06T22:51:04.513Z,15.81
2023-05-06T22:53:33.401Z,15.78
2023-05-06T22:56:03.438Z,15.77
2023-05-06T22:58:32.128Z,15.74
2023-05-06T23:01:01.806Z,15.74
2023-05-06T23:03:30.475Z,15.71
2023-05-06T23:05:58.991Z,15.71
2023-05-06T23:08:27.828Z,15.71
2023-05-06T23:10:56.393Z,15.70
2023-05-06T23:13:26.602Z,15.68
2023-05-06T23:15:55.360Z,15.69
2023-05-06T23:18:23.914Z,15.69
2023-05-06T23:20:52.449Z,15.67
2023-05-06T23:23:20.982Z,15.66
2023-05-06T23:25:49.394Z,15.65
2023-05-06T23:28:17.988Z,15.63
2023-05-06T23:30:47.860Z,15.63
2023-05-06T23:33:16.454Z,15.63
2023-05-06T23:35:45.429Z,15.61
2023-05-06T23:38:13.942Z,15.60
2023-05-06T23:40:42.433Z,15.60
2023-05-06T23:43:11.393Z,15.59
2023-05-06T23:45:39.827Z,15.58
2023-05-06T23:48:09.785Z,15.56
2023-05-06T23:50:38.313Z,15.53
2023-05-06T23:53:06.816Z,15.54
2023-05-06T23:55:35.853Z,15.51
2023-05-06T23:58:04.434Z,15.51
